Time;durP1;ratioP1;P1;durP2;ratioP2;P2;SDS_P1;SDS_P2;PMS_P1;PMS_P2;Temp;Humidity;BMP_temperature;BMP_pressure;BME280_temperature;BME280_humidity;BME280_pressure;Samples;Min_cycle;Max_cycle;Signal;HPM_P1;HPM_P2
2022/09/12 00:01:53;;;;;;;;;;;;;;;15.89;100.00;101716.50;5070482;28;19928;-36
2022/09/12 00:04:22;;;;;;;;;;;;;;;15.86;100.00;101715.16;5069745;28;19962;-31
2022/09/12 00:06:49;;;;;;;;;;;;;;;15.84;100.00;101709.00;5049574;28;19972;-32
2022/09/12 00:09:17;;;;;;;;;;;;;;;15.81;100.00;101709.63;5065248;28;20384;-31
2022/09/12 00:11:46;;;;;;;;;;;;;;;15.79;100.00;101711.91;5071896;28;19924;-31
2022/09/12 00:14:14;;;;;;;;;;;;;;;15.77;100.00;101706.63;5070677;28;19982;-39
2022/09/12 00:16:42;;;;;;;;;;;;;;;15.75;100.00;101703.28;5071443;28;19954;-35
2022/09/12 00:19:10;;;;;;;;;;;;;;;15.73;100.00;101694.31;5071308;28;19928;-32
2022/09/12 00:21:39;;;;;;;;;;;;;;;15.71;100.00;101696.59;5070969;28;20030;-37
2022/09/12 00:24:07;;;;;;;;;;;;;;;15.70;100.00;101694.09;5071453;28;19989;-36
2022/09/12 00:26:35;;;;;;;;;;;;;;;15.67;100.00;101689.09;5071815;28;19981;-37
2022/09/12 00:29:02;;;;;;;;;;;;;;;15.66;100.00;101688.25;5070795;28;19929;-32
2022/09/12 00:31:30;;;;;;;;;;;;;;;15.64;100.00;101681.28;5071667;28;20308;-37
2022/09/12 00:33:59;;;;;;;;;;;;;;;15.63;100.00;101694.50;5070817;28;20415;-34
2022/09/12 00:36:27;;;;;;;;;;;;;;;15.62;100.00;101695.66;5071259;28;19928;-39
2022/09/12 00:38:56;;;;;;;;;;;;;;;15.61;100.00;101673.47;5071385;28;19964;-37
2022/09/12 00:41:24;;;;;;;;;;;;;;;15.61;100.00;101676.28;5070889;28;19990;-33
2022/09/12 00:43:53;;;;;;;;;;;;;;;15.61;100.00;101679.09;5071564;28;19963;-38
2022/09/12 00:46:28;;;;;;;;;;;;;;;15.59;100.00;101675.78;5071373;28;20030;-38
2022/09/12 00:48:58;;;;;;;;;;;;;;;15.58;100.00;101674.13;5070774;28;20411;-35
2022/09/12 00:51:27;;;;;;;;;;;;;;;15.56;100.00;101667.97;5069814;28;19928;-35
2022/09/12 00:53:58;;;;;;;;;;;;;;;15.54;100.00;101667.41;5071743;28;19970;-37
2022/09/12 00:56:27;;;;;;;;;;;;;;;15.53;100.00;101663.75;5070445;28;19932;-38
2022/09/12 00:58:57;;;;;;;;;;;;;;;15.51;100.00;101664.06;5071438;28;19978;-39
2022/09/12 01:01:24;;;;;;;;;;;;;;;15.50;100.00;101662.41;5071028;28;20297;-32
2022/09/12 01:03:58;;;;;;;;;;;;;;;15.50;100.00;101659.59;5070879;28;19932;-41
2022/09/12 01:06:27;;;;;;;;;;;;;;;15.49;100.00;101660.75;5070926;28;19924;-37
2022/09/12 01:08:58;;;;;;;;;;;;;;;15.50;100.00;101659.59;5060387;28;19924;-41
2022/09/12 01:11:26;;;;;;;;;;;;;;;15.50;100.00;101659.59;5072907;28;20374;-35
2022/09/12 01:13:54;;;;;;;;;;;;;;;15.49;100.00;101657.09;5075332;28;19925;-39
2022/09/12 01:16:22;;;;;;;;;;;;;;;15.49;100.00;101655.09;5073858;28;20438;-39
2022/09/12 01:18:57;;;;;;;;;;;;;;;15.50;100.00;101653.13;5060620;28;19960;-35
2022/09/12 01:21:33;;;;;;;;;;;;;;;15.49;100.00;101646.66;5075227;28;20339;-40
2022/09/12 01:24:12;;;;;;;;;;;;;;;15.49;100.00;101652.28;5060106;28;19997;-33
2022/09/12 01:26:59;;;;;;;;;;;;;;;15.49;100.00;101654.28;5074870;28;19932;-41
2022/09/12 01:29:39;;;;;;;;;;;;;;;15.48;100.00;101647.81;5074166;28;19928;-38
2022/09/12 01:32:11;;;;;;;;;;;;;;;15.48;100.00;101652.59;5073762;28;20278;-36
2022/09/12 01:34:43;;;;;;;;;;;;;;;15.47;100.00;101645.31;5075162;28;20026;-32
2022/09/12 01:37:15;;;;;;;;;;;;;;;15.45;100.00;101634.38;5074312;28;19932;-32
2022/09/12 01:39:47;;;;;;;;;;;;;;;15.43;100.00;101639.47;5074964;28;19924;-34
2022/09/12 01:42:18;;;;;;;;;;;;;;;15.42;100.00;101637.81;5074724;28;19946;-32
2022/09/12 01:44:49;;;;;;;;;;;;;;;15.41;100.00;101638.13;5074258;28;20343;-32
2022/09/12 01:47:21;;;;;;;;;;;;;;;15.38;100.00;101630.34;5074476;28;19924;-38
2022/09/12 01:49:52;;;;;;;;;;;;;;;15.38;100.00;101630.34;5062772;28;19928;-40
2022/09/12 01:52:22;;;;;;;;;;;;;;;15.37;100.00;101631.47;5073929;28;19975;-34
2022/09/12 01:54:51;;;;;;;;;;;;;;;15.35;100.00;101637.41;5074574;28;19978;-35
2022/09/12 01:57:22;;;;;;;;;;;;;;;15.34;100.00;101632.94;5074440;28;20175;-39
2022/09/12 01:59:51;;;;;;;;;;;;;;;15.35;100.00;101622.50;5073565;28;19932;-31
2022/09/12 02:02:22;;;;;;;;;;;;;;;15.34;100.00;101629.28;5074480;28;19928;-31
2022/09/12 02:04:52;;;;;;;;;;;;;;;15.34;100.00;101624.50;5074276;28;20039;-34
2022/09/12 02:07:22;;;;;;;;;;;;;;;15.33;100.00;101617.19;5073802;28;20339;-32
2022/09/12 02:09:54;;;;;;;;;;;;;;;15.33;100.00;101616.38;5074107;28;19935;-38
2022/09/12 02:12:24;;;;;;;;;;;;;;;15.32;100.00;101609.91;5059360;28;19925;-37
2022/09/12 02:14:55;;;;;;;;;;;;;;;15.33;100.00;101614.38;5069382;28;19932;-36
2022/09/12 02:17:26;;;;;;;;;;;;;;;15.32;100.00;101615.53;5074089;28;19924;-32
2022/09/12 02:19:56;;;;;;;;;;;;;;;15.31;100.00;101618.66;5073275;28;19930;-38
2022/09/12 02:22:26;;;;;;;;;;;;;;;15.29;100.00;101610.53;5072567;28;19924;-36
2022/09/12 02:24:58;;;;;;;;;;;;;;;15.30;100.00;101617.00;5073699;28;19925;-37
2022/09/12 02:27:27;;;;;;;;;;;;;;;15.28;100.00;101608.88;5073273;28;19993;-38
2022/09/12 02:29:55;;;;;;;;;;;;;;;15.26;100.00;101602.72;5064841;28;20332;-36
2022/09/12 02:32:29;;;;;;;;;;;;;;;15.24;100.00;101605.00;5073944;28;19947;-36
2022/09/12 02:34:59;;;;;;;;;;;;;;;15.23;100.00;101597.72;5071944;28;19932;-38
2022/09/12 02:37:33;;;;;;;;;;;;;;;15.21;100.00;101600.00;5073848;28;19978;-36
2022/09/12 02:40:01;;;;;;;;;;;;;;;15.20;100.00;101591.88;5073428;28;19928;-32
2022/09/12 02:42:29;;;;;;;;;;;;;;;15.18;100.00;101592.22;5072859;28;19955;-34
2022/09/12 02:44:56;;;;;;;;;;;;;;;15.18;100.00;101599.81;5073344;28;19959;-35
2022/09/12 02:47:28;;;;;;;;;;;;;;;15.17;100.00;101593.38;5073779;28;19978;-42
2022/09/12 02:49:56;;;;;;;;;;;;;;;15.18;100.00;101592.22;5072322;28;19935;-33
2022/09/12 02:52:25;;;;;;;;;;;;;;;15.18;100.00;101592.22;5073970;28;19929;-33
2022/09/12 02:54:53;;;;;;;;;;;;;;;15.19;100.00;101581.81;5072661;28;19925;-37
2022/09/12 02:57:21;;;;;;;;;;;;;;;15.19;100.00;101576.97;5073402;28;19940;-38
2022/09/12 02:59:50;;;;;;;;;;;;;;;15.20;100.00;101583.44;5073343;28;19932;-34
2022/09/12 03:02:26;;;;;;;;;;;;;;;15.22;100.00;101578.34;5072645;28;20372;-32
2022/09/12 03:05:11;;;;;;;;;;;;;;;15.24;100.00;101578.88;5073178;28;20020;-32
2022/09/12 03:07:48;;;;;;;;;;;;;;;15.24;100.00;101571.25;5071813;28;19970;-40
2022/09/12 03:10:21;;;;;;;;;;;;;;;15.29;100.00;101578.75;5072154;28;19925;-33
2022/09/12 03:12:53;;;;;;;;;;;;;;;15.30;100.00;101578.47;5073201;28;19928;-33
2022/09/12 03:15:30;;;;;;;;;;;;;;;15.32;100.00;101576.16;5072787;28;19939;-39
2022/09/12 03:18:05;;;;;;;;;;;;;;;15.34;100.00;101579.50;5072397;28;19974;-32
2022/09/12 03:20:40;;;;;;;;;;;;;;;15.35;100.00;101581.16;5073139;28;19928;-35
2022/09/12 03:23:12;;;;;;;;;;;;;;;15.38;100.00;101582.53;5072227;28;19982;-37
2022/09/12 03:25:42;;;;;;;;;;;;;;;15.38;100.00;101574.91;5072512;28;19933;-33
2022/09/12 03:28:12;;;;;;;;;;;;;;;15.39;100.00;101576.56;5058374;28;20447;-39
2022/09/12 03:30:40;;;;;;;;;;;;;;;15.41;100.00;101577.06;5072049;28;20423;-37
2022/09/12 03:33:11;;;;;;;;;;;;;;;15.42;100.00;101575.09;5071259;28;19991;-36
2022/09/12 03:35:40;;;;;;;;;;;;;;;15.42;100.00;101567.50;5072505;28;19947;-33
2022/09/12 03:38:07;;;;;;;;;;;;;;;15.42;100.00;101564.69;5071378;28;19928;-32
2022/09/12 03:40:35;;;;;;;;;;;;;;;15.42;100.00;101567.50;5072679;28;19959;-39
2022/09/12 03:43:03;;;;;;;;;;;;;;;15.43;100.00;101571.97;5072317;28;19972;-32
2022/09/12 03:45:30;;;;;;;;;;;;;;;15.43;100.00;101573.94;5071649;28;19924;-33
2022/09/12 03:47:58;;;;;;;;;;;;;;;15.43;100.00;101560.72;5067163;28;19946;-32
2022/09/12 03:50:25;;;;;;;;;;;;;;;15.43;100.00;101565.50;5072105;28;19928;-39
2022/09/12 03:52:54;;;;;;;;;;;;;;;15.43;100.00;101569.16;5069759;28;19931;-36
2022/09/12 03:55:22;;;;;;;;;;;;;;;15.44;100.00;101570.00;5070689;28;19932;-41
2022/09/12 03:57:52;;;;;;;;;;;;;;;15.45;100.00;101569.69;5061564;28;19955;-32
2022/09/12 04:00:19;;;;;;;;;;;;;;;15.46;100.00;101571.34;5071307;28;19924;-32
2022/09/12 04:02:47;;;;;;;;;;;;;;;15.47;100.00;101567.38;5070517;28;19928;-33
2022/09/12 04:05:14;;;;;;;;;;;;;;;15.49;100.00;101564.25;5071111;28;19967;-41
2022/09/12 04:07:42;;;;;;;;;;;;;;;15.50;100.00;101563.94;5071554;28;19928;-34
2022/09/12 04:10:12;;;;;;;;;;;;;;;15.52;100.00;101569.25;5072577;28;19925;-38
2022/09/12 04:12:42;;;;;;;;;;;;;;;15.54;100.00;101552.06;5070767;28;20447;-40
2022/09/12 04:15:10;;;;;;;;;;;;;;;15.55;100.00;101556.56;5071957;28;19924;-38
2022/09/12 04:17:38;;;;;;;;;;;;;;;15.56;100.00;101563.88;5071387;28;19928;-41
2022/09/12 04:20:06;;;;;;;;;;;;;;;15.55;100.00;101563.00;5071608;28;19956;-32
2022/09/12 04:22:33;;;;;;;;;;;;;;;15.55;100.00;101562.19;5071604;28;19958;-37
2022/09/12 04:25:01;;;;;;;;;;;;;;;15.54;100.00;101557.69;5057260;28;19924;-32
2022/09/12 04:27:30;;;;;;;;;;;;;;;15.55;100.00;101560.19;5070847;28;19924;-32
2022/09/12 04:29:58;;;;;;;;;;;;;;;15.55;100.00;101548.94;5069708;28;19929;-34
2022/09/12 04:32:26;;;;;;;;;;;;;;;15.55;100.00;101551.75;5071596;28;20293;-33
2022/09/12 04:34:53;;;;;;;;;;;;;;;15.56;100.00;101550.66;5070756;28;19928;-39
2022/09/12 04:37:22;;;;;;;;;;;;;;;15.57;100.00;101551.47;5071408;28;19935;-32
2022/09/12 04:39:50;;;;;;;;;;;;;;;15.59;100.00;101554.81;5071389;28;19954;-32
2022/09/12 04:42:18;;;;;;;;;;;;;;;15.59;100.00;101555.63;5070601;28;19928;-38
2022/09/12 04:44:48;;;;;;;;;;;;;;;15.60;100.00;101556.44;5070653;28;19924;-32
2022/09/12 04:47:15;;;;;;;;;;;;;;;15.59;100.00;101558.44;5070710;28;20365;-32
2022/09/12 04:49:43;;;;;;;;;;;;;;;15.60;100.00;101548.84;5071307;28;19982;-32
2022/09/12 04:52:10;;;;;;;;;;;;;;;15.60;100.00;101548.84;5071325;28;19925;-34
2022/09/12 04:54:38;;;;;;;;;;;;;;;15.61;100.00;101552.47;5070567;28;20355;-35
2022/09/12 04:57:06;;;;;;;;;;;;;;;15.60;100.00;101546.03;5071319;28;19974;-37
2022/09/12 04:59:33;;;;;;;;;;;;;;;15.62;100.00;101537.28;5070783;28;20397;-34
2022/09/12 05:02:02;;;;;;;;;;;;;;;15.63;100.00;101547.38;5070544;28;20023;-32
2022/09/12 05:04:30;;;;;;;;;;;;;;;15.66;100.00;101541.94;5070495;28;19983;-37
2022/09/12 05:06:58;;;;;;;;;;;;;;;15.66;100.00;101535.50;5070826;28;19973;-39
2022/09/12 05:09:26;;;;;;;;;;;;;;;15.67;100.00;101532.38;5069538;28;19932;-36
2022/09/12 05:11:54;;;;;;;;;;;;;;;15.69;100.00;101532.06;5070752;28;19928;-39
2022/09/12 05:14:37;;;;;;;;;;;;;;;15.70;100.00;101530.91;5070355;28;19924;-32
2022/09/12 05:17:06;;;;;;;;;;;;;;;15.71;100.00;101533.41;5069566;28;19928;-32
2022/09/12 05:19:33;;;;;;;;;;;;;;;15.72;100.00;101529.44;5070868;28;20439;-38
2022/09/12 05:22:01;;;;;;;;;;;;;;;15.76;100.00;101536.09;5071015;28;20397;-34
2022/09/12 05:24:29;;;;;;;;;;;;;;;15.77;100.00;101536.94;5070241;28;19932;-34
2022/09/12 05:26:56;;;;;;;;;;;;;;;15.78;100.00;101538.59;5067452;28;20300;-33
2022/09/12 05:29:24;;;;;;;;;;;;;;;15.80;100.00;101539.09;5070067;28;19954;-35
2022/09/12 05:31:52;;;;;;;;;;;;;;;15.79;100.00;101529.81;5052900;28;19924;-32
2022/09/12 05:34:20;;;;;;;;;;;;;;;15.79;100.00;101523.34;5071018;28;20385;-34
2022/09/12 05:36:51;;;;;;;;;;;;;;;15.79;100.00;101520.53;5068893;28;19929;-34
2022/09/12 05:39:20;;;;;;;;;;;;;;;15.79;100.00;101528.97;5069098;28;19932;-41
2022/09/12 05:41:48;;;;;;;;;;;;;;;15.79;100.00;101528.97;5069858;28;19928;-35
2022/09/12 05:44:16;;;;;;;;;;;;;;;15.81;100.00;101521.06;5069005;28;19933;-34
2022/09/12 05:46:49;;;;;;;;;;;;;;;15.80;100.00;101525.03;5067955;28;21192;-32
2022/09/12 05:49:16;;;;;;;;;;;;;;;15.82;100.00;101522.72;5069197;28;19928;-37
2022/09/12 05:51:45;;;;;;;;;;;;;;;15.82;100.00;101523.56;5069012;28;19974;-35
2022/09/12 05:54:14;;;;;;;;;;;;;;;15.83;100.00;101521.56;5069282;28;20378;-36
2022/09/12 05:56:43;;;;;;;;;;;;;;;15.83;100.00;101522.41;5064388;28;19943;-36
2022/09/12 05:59:12;;;;;;;;;;;;;;;15.84;100.00;101521.25;5070758;28;19934;-38
2022/09/12 06:01:39;;;;;;;;;;;;;;;15.85;100.00;101525.72;5072027;28;20476;-37
2022/09/12 06:04:07;;;;;;;;;;;;;;;15.86;100.00;101523.75;5072175;28;20035;-33
2022/09/12 06:06:37;;;;;;;;;;;;;;;15.87;100.00;101525.41;5070436;28;20328;-33
2022/09/12 06:09:06;;;;;;;;;;;;;;;15.88;100.00;101526.25;5072715;28;19931;-38
2022/09/12 06:11:36;;;;;;;;;;;;;;;15.88;100.00;101532.72;5070250;28;19928;-33
2022/09/12 06:14:04;;;;;;;;;;;;;;;15.91;100.00;101532.09;5069235;28;19983;-33
2022/09/12 06:16:32;;;;;;;;;;;;;;;15.94;100.00;101537.06;5072365;28;19959;-39
2022/09/12 06:19:00;;;;;;;;;;;;;;;15.96;100.00;101537.59;5071842;28;20236;-41
2022/09/12 06:21:29;;;;;;;;;;;;;;;16.00;100.00;101537.75;5073411;28;19928;-33
2022/09/12 06:23:57;;;;;;;;;;;;;;;16.04;100.00;101534.00;5058568;28;19928;-35
2022/09/12 06:26:27;;;;;;;;;;;;;;;16.06;100.00;101528.03;5071608;28;19989;-35
2022/09/12 06:28:56;;;;;;;;;;;;;;;16.09;100.00;101528.25;5073125;28;19939;-34
2022/09/12 06:31:24;;;;;;;;;;;;;;;16.13;100.00;101525.63;5072439;28;20486;-38
2022/09/12 06:33:53;;;;;;;;;;;;;;;16.15;100.00;101526.13;5069867;28;19924;-34
2022/09/12 06:36:21;;;;;;;;;;;;;;;16.17;100.00;101523.84;5054388;28;19928;-33
2022/09/12 06:38:53;;;;;;;;;;;;;;;16.20;100.00;101521.19;5072374;28;19924;-41
2022/09/12 06:41:21;;;;;;;;;;;;;;;16.23;100.00;101524.50;5056947;28;19978;-38
2022/09/12 06:43:50;;;;;;;;;;;;;;;16.27;100.00;101517.94;5067444;28;19966;-38
2022/09/12 06:46:18;;;;;;;;;;;;;;;16.32;100.00;101508.50;5072706;28;19928;-39
2022/09/12 06:48:46;;;;;;;;;;;;;;;16.38;100.00;101512.88;5071761;28;20330;-32
2022/09/12 06:51:15;;;;;;;;;;;;;;;16.42;100.00;101508.22;5072401;28;19978;-40
2022/09/12 06:53:43;;;;;;;;;;;;;;;16.45;100.00;101511.25;5068978;28;19924;-38
2022/09/12 06:56:12;;;;;;;;;;;;;;;16.51;100.00;101512.78;5070526;28;19978;-32
2022/09/12 06:58:40;;;;;;;;;;;;;;;16.63;100.00;101516.97;5066713;28;20000;-39
2022/09/12 07:01:10;;;;;;;;;;;;;;;16.71;100.00;101511.41;5071477;28;19943;-36
2022/09/12 07:03:38;;;;;;;;;;;;;;;16.77;100.00;101512.94;5071915;28;19924;-33
2022/09/12 07:06:07;;;;;;;;;;;;;;;16.82;100.00;101511.94;5060929;28;19924;-35
2022/09/12 07:08:36;;;;;;;;;;;;;;;16.83;100.00;101514.44;5066925;28;20271;-40
2022/09/12 07:11:09;;;;;;;;;;;;;;;16.88;100.00;101519.09;5071821;28;19991;-33
2022/09/12 07:13:36;;;;;;;;;;;;;;;16.92;100.00;101514.47;5072506;28;19924;-32
2022/09/12 07:16:04;;;;;;;;;;;;;;;17.06;100.00;101508.72;5071974;28;19935;-34
2022/09/12 07:18:33;;;;;;;;;;;;;;;17.28;100.00;101514.25;5072477;28;19924;-34
2022/09/12 07:21:01;;;;;;;;;;;;;;;17.58;100.00;101504.81;5072425;28;20386;-35
2022/09/12 07:23:29;;;;;;;;;;;;;;;17.91;100.00;101512.84;5070710;28;19924;-42
2022/09/12 07:25:57;;;;;;;;;;;;;;;18.13;100.00;101512.66;5071934;28;19978;-37
2022/09/12 07:28:25;;;;;;;;;;;;;;;18.40;100.00;101510.59;5072621;28;19951;-37
2022/09/12 07:30:53;;;;;;;;;;;;;;;18.63;100.00;101512.06;5071609;28;19928;-34
2022/09/12 07:33:21;;;;;;;;;;;;;;;18.80;100.00;101513.97;5072220;28;19928;-36
2022/09/12 07:35:52;;;;;;;;;;;;;;;18.90;100.00;101520.09;5072364;28;20197;-32
2022/09/12 07:38:19;;;;;;;;;;;;;;;19.01;100.00;101509.22;5072112;28;19928;-42
2022/09/12 07:40:47;;;;;;;;;;;;;;;19.06;100.00;101513.88;5072453;28;20274;-33
2022/09/12 07:43:15;;;;;;;;;;;;;;;19.16;100.00;101516.31;5071775;28;20223;-35
2022/09/12 07:45:42;;;;;;;;;;;;;;;19.29;100.00;101520.91;5072076;28;19935;-37
2022/09/12 07:48:10;;;;;;;;;;;;;;;19.41;100.00;101522.97;5072073;28;19976;-34
2022/09/12 07:50:38;;;;;;;;;;;;;;;19.56;100.00;101519.59;5071418;28;20373;-36
2022/09/12 07:53:12;;;;;;;;;;;;;;;19.70;100.00;101510.81;5072335;28;20017;-41
2022/09/12 07:55:40;;;;;;;;;;;;;;;19.86;100.00;101509.84;5072079;28;20334;-36
2022/09/12 07:58:07;;;;;;;;;;;;;;;20.06;100.00;101522.34;5071442;28;19928;-38
2022/09/12 08:00:36;;;;;;;;;;;;;;;20.34;100.00;101513.25;5071665;28;19928;-40
2022/09/12 08:03:06;;;;;;;;;;;;;;;20.69;100.00;101516.53;5072369;28;19935;-34
2022/09/12 08:05:33;;;;;;;;;;;;;;;21.22;100.00;101521.22;5071109;28;19958;-42
2022/09/12 08:08:01;;;;;;;;;;;;;;;21.67;100.00;101527.53;5072187;28;20324;-35
2022/09/12 08:10:30;;;;;;;;;;;;;;;22.12;100.00;101523.66;5071571;28;19932;-37
2022/09/12 08:12:58;;;;;;;;;;;;;;;22.50;100.00;101528.78;5071046;28;20344;-33
2022/09/12 08:15:25;;;;;;;;;;;;;;;22.66;93.55;101523.13;5071661;28;19983;-34
2022/09/12 08:17:53;;;;;;;;;;;;;;;22.76;96.15;101519.75;5071791;28;19928;-36
2022/09/12 08:20:20;;;;;;;;;;;;;;;23.09;97.53;101522.25;5070494;28;19924;-33
2022/09/12 08:22:54;;;;;;;;;;;;;;;23.40;91.25;101526.25;5067900;28;19966;-34
2022/09/12 08:25:21;;;;;;;;;;;;;;;23.60;84.38;101523.09;5070627;28;19931;-34
2022/09/12 08:27:51;;;;;;;;;;;;;;;23.56;84.00;101522.22;5071562;28;19957;-37
2022/09/12 08:30:18;;;;;;;;;;;;;;;23.24;83.18;101529.13;5071212;28;20070;-35
2022/09/12 08:32:46;;;;;;;;;;;;;;;23.03;85.76;101516.00;5070794;28;19990;-36
2022/09/12 08:35:13;;;;;;;;;;;;;;;22.81;85.13;101527.19;5071386;28;20026;-34
2022/09/12 08:37:41;;;;;;;;;;;;;;;22.95;89.50;101522.72;5071370;28;19924;-34
2022/09/12 08:40:11;;;;;;;;;;;;;;;23.20;88.52;101517.63;5070808;28;19958;-33
2022/09/12 08:42:47;;;;;;;;;;;;;;;23.41;84.16;101525.88;5071616;28;20403;-39
2022/09/12 08:45:20;;;;;;;;;;;;;;;23.40;84.06;101521.38;5071219;28;20478;-37
2022/09/12 08:47:48;;;;;;;;;;;;;;;23.44;84.45;101522.28;5070473;28;19929;-33
2022/09/12 08:50:17;;;;;;;;;;;;;;;23.56;86.61;101519.38;5071055;28;19955;-37
2022/09/12 08:52:49;;;;;;;;;;;;;;;23.74;83.93;101514.06;5071112;28;20287;-36
2022/09/12 08:55:24;;;;;;;;;;;;;;;24.06;82.85;101526.16;5070630;28;19925;-40
2022/09/12 08:57:51;;;;;;;;;;;;;;;24.26;82.40;101519.28;5062581;28;20377;-35
2022/09/12 09:00:21;;;;;;;;;;;;;;;24.46;76.09;101517.22;5070899;28;19924;-33
2022/09/12 09:03:10;;;;;;;;;;;;;;;24.71;79.09;101517.69;5069386;28;19952;-35
2022/09/12 09:05:46;;;;;;;;;;;;;;;24.88;78.02;101507.81;5071079;28;19924;-34
2022/09/12 09:08:19;;;;;;;;;;;;;;;25.16;76.78;101499.75;5061807;28;19954;-36
2022/09/12 09:10:50;;;;;;;;;;;;;;;25.52;80.41;101503.97;5071246;28;19932;-33
2022/09/12 09:16:15;;;;;;;;;;;;;;;26.23;66.66;101509.84;5025875;28;20001;-35
2022/09/12 09:18:44;;;;;;;;;;;;;;;26.23;67.88;101513.53;5071025;28;19925;-35
2022/09/12 09:21:17;;;;;;;;;;;;;;;26.35;67.23;101513.31;5070694;28;19925;-37
2022/09/12 09:23:46;;;;;;;;;;;;;;;26.43;66.64;101500.72;5061602;28;20035;-41
2022/09/12 09:26:17;;;;;;;;;;;;;;;26.42;59.56;101507.66;5071185;28;19939;-38
2022/09/12 09:28:46;;;;;;;;;;;;;;;26.26;59.99;101489.88;5065448;28;19986;-37
2022/09/12 09:31:16;;;;;;;;;;;;;;;26.26;62.22;101495.59;5071845;28;19929;-35
2022/09/12 09:33:46;;;;;;;;;;;;;;;26.53;58.42;101493.47;5074593;28;20012;-34
2022/09/12 09:36:21;;;;;;;;;;;;;;;26.78;56.24;101485.09;5073928;28;20313;-41
2022/09/12 09:38:49;;;;;;;;;;;;;;;26.72;56.92;101490.38;5074633;28;19978;-36
2022/09/12 09:41:22;;;;;;;;;;;;;;;26.54;59.11;101483.66;5074747;28;20346;-35
2022/09/12 09:43:50;;;;;;;;;;;;;;;26.31;58.10;101480.16;5073742;28;19924;-43
2022/09/12 09:46:19;;;;;;;;;;;;;;;26.12;62.87;101480.31;5074707;28;19924;-39
2022/09/12 09:48:48;;;;;;;;;;;;;;;25.90;64.95;101470.63;5073938;28;19931;-37
2022/09/12 09:51:16;;;;;;;;;;;;;;;25.70;65.65;101467.09;5074350;28;19928;-42
2022/09/12 09:53:46;;;;;;;;;;;;;;;25.50;67.62;101463.53;5074340;28;19987;-38
2022/09/12 09:56:19;;;;;;;;;;;;;;;25.41;69.79;101460.94;5074283;28;19935;-33
2022/09/12 09:58:49;;;;;;;;;;;;;;;25.48;67.17;101460.22;5073351;28;19925;-34
2022/09/12 10:01:18;;;;;;;;;;;;;;;25.29;66.22;101461.19;5074059;28;19924;-36
2022/09/12 10:03:50;;;;;;;;;;;;;;;25.11;68.88;101456.41;5073202;28;20407;-34
2022/09/12 10:06:25;;;;;;;;;;;;;;;25.17;71.07;101463.44;5073681;28;19959;-34
2022/09/12 10:09:04;;;;;;;;;;;;;;;25.18;69.64;101450.81;5074007;28;19932;-33
2022/09/12 10:11:33;;;;;;;;;;;;;;;25.25;71.06;101459.47;5073440;28;19933;-38
2022/09/12 10:14:00;;;;;;;;;;;;;;;25.37;69.39;101442.94;5074261;28;19928;-35
2022/09/12 10:16:30;;;;;;;;;;;;;;;25.57;69.74;101442.81;5073993;28;19932;-37
2022/09/12 10:18:58;;;;;;;;;;;;;;;25.74;67.92;101447.97;5073182;28;20437;-34
2022/09/12 10:21:31;;;;;;;;;;;;;;;25.86;69.18;101447.69;5073544;28;19932;-41
2022/09/12 10:24:19;;;;;;;;;;;;;;;26.04;69.59;101450.78;5073461;28;19928;-31
2022/09/12 10:26:49;;;;;;;;;;;;;;;26.00;61.13;101453.59;5072195;28;19932;-33
2022/09/12 10:29:25;;;;;;;;;;;;;;;26.04;62.91;101456.50;5073032;28;20266;-30
2022/09/12 10:31:55;;;;;;;;;;;;;;;26.05;65.06;101458.97;5072751;28;19932;-32
2022/09/12 10:34:26;;;;;;;;;;;;;;;25.95;64.09;101453.13;5073300;28;19936;-32
2022/09/12 10:36:58;;;;;;;;;;;;;;;25.80;64.48;101454.16;5073190;28;19935;-31
2022/09/12 10:39:26;;;;;;;;;;;;;;;25.82;68.12;101449.69;5072630;28;19953;-31
2022/09/12 10:41:54;;;;;;;;;;;;;;;25.70;66.34;101453.63;5073572;28;19958;-33
2022/09/12 10:44:24;;;;;;;;;;;;;;;25.38;63.58;101440.88;5072410;28;19932;-36
2022/09/12 10:46:54;;;;;;;;;;;;;;;25.04;66.81;101435.09;5072501;28;20416;-30
2022/09/12 10:49:23;;;;;;;;;;;;;;;24.84;68.75;101436.34;5073534;28;19925;-31
2022/09/12 10:51:51;;;;;;;;;;;;;;;24.82;70.51;101440.81;5073594;28;19925;-32
2022/09/12 10:54:21;;;;;;;;;;;;;;;24.67;70.60;101431.19;5072446;28;20458;-30
2022/09/12 10:56:56;;;;;;;;;;;;;;;24.44;71.50;101444.63;5064407;28;20334;-33
2022/09/12 10:59:32;;;;;;;;;;;;;;;24.27;73.13;101435.34;5072847;28;20348;-30
2022/09/12 11:02:13;;;;;;;;;;;;;;;24.18;75.86;101429.03;5063500;28;19929;-30
2022/09/12 11:04:44;;;;;;;;;;;;;;;24.16;76.69;101422.06;5073335;28;19956;-30
2022/09/12 11:07:26;;;;;;;;;;;;;;;24.14;76.72;101430.19;5063922;28;19925;-36
2022/09/12 11:09:59;;;;;;;;;;;;;;;24.12;76.90;101427.72;5072962;28;19932;-34
2022/09/12 11:12:30;;;;;;;;;;;;;;;24.03;75.93;101430.78;5073346;28;19924;-30
2022/09/12 11:15:02;;;;;;;;;;;;;;;23.92;77.96;101435.47;5072706;28;19989;-30
2022/09/12 11:17:38;;;;;;;;;;;;;;;23.75;76.04;101432.25;5064317;28;19970;-29
2022/09/12 11:20:21;;;;;;;;;;;;;;;23.69;77.40;101441.09;5072883;28;19971;-29
2022/09/12 11:23:01;;;;;;;;;;;;;;;23.67;78.74;101423.53;5068151;28;19932;-36
2022/09/12 11:25:31;;;;;;;;;;;;;;;23.78;79.27;101426.59;5072918;28;19935;-30
2022/09/12 11:28:20;;;;;;;;;;;;;;;23.84;79.26;101424.28;5072561;28;19932;-33
2022/09/12 11:30:52;;;;;;;;;;;;;;;23.86;79.18;101424.72;5067736;28;19928;-34
2022/09/12 11:33:30;;;;;;;;;;;;;;;23.78;79.76;101423.75;5072885;28;19931;-29
2022/09/12 11:35:57;;;;;;;;;;;;;;;23.72;80.45;101418.75;5071832;28;19932;-32
2022/09/12 11:38:33;;;;;;;;;;;;;;;23.72;80.74;101413.88;5071939;28;19924;-31
2022/09/12 11:41:02;;;;;;;;;;;;;;;23.67;80.77;101429.22;5072380;28;19964;-41
2022/09/12 11:43:34;;;;;;;;;;;;;;;23.62;80.00;101411.59;5071288;28;19935;-34
2022/09/12 11:46:06;;;;;;;;;;;;;;;23.66;79.38;101416.19;5072161;28;19956;-41
2022/09/12 11:48:39;;;;;;;;;;;;;;;23.85;81.25;101423.06;5063696;28;19925;-37
2022/09/12 11:51:12;;;;;;;;;;;;;;;23.94;80.08;101415.13;5071747;28;20375;-34
2022/09/12 11:53:41;;;;;;;;;;;;;;;23.97;78.52;101408.69;5071779;28;19970;-38
2022/09/12 11:56:13;;;;;;;;;;;;;;;24.11;79.82;101419.53;5071863;28;19932;-31
2022/09/12 11:58:42;;;;;;;;;;;;;;;24.07;78.31;101416.59;5071622;28;19929;-34
2022/09/12 12:01:13;;;;;;;;;;;;;;;24.04;78.50;101415.31;5072009;28;20324;-32
2022/09/12 12:03:43;;;;;;;;;;;;;;;24.12;80.47;101419.16;5070706;28;19931;-36
2022/09/12 12:06:13;;;;;;;;;;;;;;;24.20;80.40;101405.84;5071830;28;19925;-36
2022/09/12 12:08:42;;;;;;;;;;;;;;;24.25;79.64;101397.00;5071778;28;20026;-35
2022/09/12 12:11:10;;;;;;;;;;;;;;;24.31;78.88;101404.88;5071231;28;19947;-29
2022/09/12 12:13:39;;;;;;;;;;;;;;;24.38;78.39;101395.59;5071363;28;19928;-37
2022/09/12 12:16:11;;;;;;;;;;;;;;;24.40;76.32;101398.91;5071609;28;19928;-33
2022/09/12 12:18:40;;;;;;;;;;;;;;;24.38;75.85;101396.44;5070585;28;19940;-34
2022/09/12 12:21:35;;;;;;;;;;;;;;;24.23;74.20;101399.38;5071618;28;19936;-32
2022/09/12 12:24:04;;;;;;;;;;;;;;;24.13;73.76;101391.47;5071543;28;19986;-35
2022/09/12 12:26:43;;;;;;;;;;;;;;;24.08;76.02;101384.03;5051063;28;19936;-33
2022/09/12 12:29:12;;;;;;;;;;;;;;;23.98;76.23;101381.81;5067050;28;19924;-29
2022/09/12 12:31:54;;;;;;;;;;;;;;;23.91;77.17;101373.13;5050803;28;20385;-32
2022/09/12 12:34:26;;;;;;;;;;;;;;;23.93;75.24;101373.56;5067274;28;20434;-30
2022/09/12 12:36:56;;;;;;;;;;;;;;;23.83;75.60;101374.16;5051704;28;19933;-31
2022/09/12 12:39:41;;;;;;;;;;;;;;;23.91;77.60;101370.25;5065383;28;19932;-30
2022/09/12 12:42:09;;;;;;;;;;;;;;;23.96;75.55;101365.09;5041721;28;20003;-38
2022/09/12 12:44:50;;;;;;;;;;;;;;;24.03;76.61;101359.50;5066666;28;19978;-33
2022/09/12 12:47:19;;;;;;;;;;;;;;;24.11;75.63;101371.88;5060691;28;19928;-30
2022/09/12 12:49:51;;;;;;;;;;;;;;;24.11;72.19;101366.16;5071227;28;20386;-30